Time;durP1;ratioP1;P1;durP2;ratioP2;P2;SDS_P1;SDS_P2;PMS_P1;PMS_P2;Temp;Humidity;BMP_temperature;BMP_pressure;BME280_temperature;BME280_humidity;BME280_pressure;Samples;Min_cycle;Max_cycle;Signal;HPM_P1;HPM_P2
2022/09/14 00:01:09;;;;;;;12.55;2.88;;;;;;;;;;4953612;28;20046;-68
2022/09/14 00:03:35;;;;;;;14.98;3.10;;;;;;;;;;4940364;28;20049;-69
2022/09/14 00:06:09;;;;;;;11.07;3.00;;;;;;;;;;4952889;28;20074;-72
2022/09/14 00:08:36;;;;;;;11.73;2.40;;;;;;;;;;4957166;28;20071;-71
2022/09/14 00:11:05;;;;;;;13.43;3.58;;;;;;;;;;4954582;28;20126;-71
2022/09/14 00:13:30;;;;;;;11.98;2.72;;;;;;;;;;4947442;28;20054;-74
2022/09/14 00:16:02;;;;;;;13.80;3.30;;;;;;;;;;4952899;28;20047;-70
2022/09/14 00:18:28;;;;;;;12.60;2.72;;;;;;;;;;4952473;28;20054;-70
2022/09/14 00:21:02;;;;;;;13.98;3.03;;;;;;;;;;4949093;28;20044;-68
2022/09/14 00:23:28;;;;;;;8.57;2.65;;;;;;;;;;4953718;28;20505;-69
2022/09/14 00:25:54;;;;;;;14.90;2.95;;;;;;;;;;4949835;28;20053;-73
2022/09/14 00:28:21;;;;;;;12.63;2.97;;;;;;;;;;4951751;28;20039;-68
2022/09/14 00:30:46;;;;;;;14.90;3.40;;;;;;;;;;4950591;28;20194;-68
2022/09/14 00:33:12;;;;;;;14.70;2.97;;;;;;;;;;4953629;28;20086;-69
2022/09/14 00:35:39;;;;;;;15.52;3.03;;;;;;;;;;4953557;28;20058;-73
2022/09/14 00:38:06;;;;;;;10.15;2.58;;;;;;;;;;4950801;29;20054;-73
2022/09/14 00:40:32;;;;;;;9.98;2.78;;;;;;;;;;4951348;28;20051;-73
2022/09/14 00:42:59;;;;;;;11.02;2.78;;;;;;;;;;4952172;28;20039;-67
2022/09/14 00:45:26;;;;;;;18.67;3.75;;;;;;;;;;4952564;28;20710;-70
2022/09/14 00:47:52;;;;;;;9.65;3.10;;;;;;;;;;4949778;28;20057;-74
2022/09/14 00:50:19;;;;;;;13.20;3.13;;;;;;;;;;4952202;28;20051;-68
2022/09/14 00:52:48;;;;;;;9.88;2.95;;;;;;;;;;4947653;28;20090;-67
2022/09/14 00:55:21;;;;;;;14.85;3.15;;;;;;;;;;4949449;28;20055;-70
2022/09/14 00:57:52;;;;;;;16.45;3.60;;;;;;;;;;4963272;28;20047;-71
2022/09/14 01:00:23;;;;;;;16.23;3.70;;;;;;;;;;4949348;28;20055;-73
2022/09/14 01:02:49;;;;;;;10.80;3.88;;;;;;;;;;4947917;28;20087;-71
2022/09/14 01:05:16;;;;;;;14.60;4.80;;;;;;;;;;4947973;28;20454;-69
2022/09/14 01:08:17;;;;;;;11.32;4.97;;;;;;;;;;4949587;28;20544;-69
2022/09/14 01:10:53;;;;;;;15.85;4.70;;;;;;;;;;4952559;28;20043;-68
2022/09/14 01:13:35;;;;;;;19.42;4.85;;;;;;;;;;4949393;28;20057;-76
2022/09/14 01:16:11;;;;;;;12.02;3.90;;;;;;;;;;4939050;28;20356;-70
2022/09/14 01:18:46;;;;;;;12.52;3.80;;;;;;;;;;4948550;28;20134;-70
2022/09/14 01:21:18;;;;;;;17.90;3.65;;;;;;;;;;4960566;28;20115;-68
2022/09/14 01:24:05;;;;;;;14.73;3.45;;;;;;;;;;4942905;28;20055;-73
2022/09/14 01:26:46;;;;;;;10.68;3.33;;;;;;;;;;4950093;28;20310;-71
2022/09/14 01:29:17;;;;;;;11.98;3.50;;;;;;;;;;4949645;28;20059;-72
2022/09/14 01:31:54;;;;;;;13.27;3.50;;;;;;;;;;4946309;28;20070;-68
2022/09/14 01:34:35;;;;;;;17.15;2.97;;;;;;;;;;4951089;28;20055;-69
2022/09/14 01:37:27;;;;;;;8.25;3.25;;;;;;;;;;4954829;28;20225;-68
2022/09/14 01:40:00;;;;;;;13.60;3.28;;;;;;;;;;4953251;28;20054;-74
2022/09/14 01:42:28;;;;;;;15.27;3.17;;;;;;;;;;4955798;28;20126;-67
2022/09/14 01:44:58;;;;;;;14.70;3.60;;;;;;;;;;4953156;28;20047;-70
2022/09/14 01:47:35;;;;;;;17.73;3.53;;;;;;;;;;4966559;28;20047;-68
2022/09/14 01:50:14;;;;;;;18.98;4.30;;;;;;;;;;4952173;28;20043;-73
2022/09/14 01:53:22;;;;;;;16.30;3.40;;;;;;;;;;4951511;28;20047;-68
2022/09/14 01:55:52;;;;;;;14.55;3.35;;;;;;;;;;4952256;28;20408;-67
2022/09/14 01:58:27;;;;;;;16.00;3.35;;;;;;;;;;4957082;28;20050;-73
2022/09/14 02:00:56;;;;;;;13.75;3.58;;;;;;;;;;4950299;28;20054;-71
2022/09/14 02:03:27;;;;;;;11.88;3.30;;;;;;;;;;4951527;28;20055;-68
2022/09/14 02:06:04;;;;;;;13.80;3.20;;;;;;;;;;4951457;28;20053;-70
2022/09/14 02:08:31;;;;;;;15.07;3.10;;;;;;;;;;4967753;28;20061;-67
2022/09/14 02:10:58;;;;;;;14.35;2.97;;;;;;;;;;4953150;28;20442;-69
2022/09/14 02:13:25;;;;;;;15.82;3.42;;;;;;;;;;4951776;28;20043;-70
2022/09/14 02:15:51;;;;;;;17.70;3.22;;;;;;;;;;4949949;28;20067;-71
2022/09/14 02:18:18;;;;;;;10.63;3.60;;;;;;;;;;4952220;28;20071;-70
2022/09/14 02:20:49;;;;;;;12.95;3.13;;;;;;;;;;4945473;28;20059;-71
2022/09/14 02:23:16;;;;;;;10.82;3.40;;;;;;;;;;4952271;28;20131;-68
2022/09/14 02:25:43;;;;;;;13.77;3.65;;;;;;;;;;4953180;28;20070;-70
2022/09/14 02:28:09;;;;;;;17.85;3.80;;;;;;;;;;4951805;28;20047;-71
2022/09/14 02:30:48;;;;;;;14.63;4.20;;;;;;;;;;4952112;28;20408;-69
2022/09/14 02:33:21;;;;;;;15.73;3.65;;;;;;;;;;4947810;28;20058;-72
2022/09/14 02:35:51;;;;;;;;;;;;;;;;;;4952488;28;20480;-67
2022/09/14 02:38:28;;;;;;;13.32;3.03;;;;;;;;;;4950978;28;19934;-69
2022/09/14 02:41:06;;;;;;;15.32;4.00;;;;;;;;;;4952012;28;20047;-68
2022/09/14 02:43:58;;;;;;;9.52;3.63;;;;;;;;;;4949553;28;20043;-69
2022/09/14 02:46:50;;;;;;;13.77;3.50;;;;;;;;;;4955547;28;20066;-69
2022/09/14 02:49:57;;;;;;;17.50;3.97;;;;;;;;;;4952589;28;20106;-73
2022/09/14 02:52:41;;;;;;;16.35;3.85;;;;;;;;;;4951440;28;20059;-70
2022/09/14 02:55:11;;;;;;;11.75;3.58;;;;;;;;;;4952522;28;20047;-68
2022/09/14 02:58:00;;;;;;;14.88;4.28;;;;;;;;;;4949470;28;20528;-67
2022/09/14 03:00:28;;;;;;;12.23;3.40;;;;;;;;;;4948756;28;20047;-72
2022/09/14 03:02:54;;;;;;;10.98;3.72;;;;;;;;;;4951853;28;20047;-67
2022/09/14 03:05:20;;;;;;;10.52;3.10;;;;;;;;;;4948267;28;20054;-67
2022/09/14 03:07:46;;;;;;;17.35;3.47;;;;;;;;;;4949149;28;20141;-68
2022/09/14 03:10:12;;;;;;;10.02;3.10;;;;;;;;;;4949466;28;20070;-67
2022/09/14 03:12:38;;;;;;;15.52;3.50;;;;;;;;;;4948217;28;20457;-68
2022/09/14 03:15:05;;;;;;;19.30;4.00;;;;;;;;;;4957612;28;20043;-70
2022/09/14 03:17:31;;;;;;;13.18;3.45;;;;;;;;;;4952095;28;20058;-73
2022/09/14 03:19:57;;;;;;;17.80;3.83;;;;;;;;;;4951265;28;20083;-68
2022/09/14 03:22:23;;;;;;;13.88;3.85;;;;;;;;;;4950171;28;20122;-67
2022/09/14 03:24:49;;;;;;;11.68;3.58;;;;;;;;;;4950197;28;20058;-70
2022/09/14 03:27:15;;;;;;;12.57;3.47;;;;;;;;;;4949910;28;20509;-73
2022/09/14 03:29:41;;;;;;;12.93;3.45;;;;;;;;;;4951142;28;20039;-71
2022/09/14 03:32:09;;;;;;;17.70;4.20;;;;;;;;;;4948406;28;20051;-70
2022/09/14 03:34:35;;;;;;;11.80;4.00;;;;;;;;;;4951721;28;20473;-67
2022/09/14 03:37:01;;;;;;;15.68;3.90;;;;;;;;;;4948561;28;20049;-66
2022/09/14 03:39:27;;;;;;;16.05;3.60;;;;;;;;;;4949132;28;20054;-67
2022/09/14 03:41:53;;;;;;;11.52;3.55;;;;;;;;;;4951996;28;20520;-70
2022/09/14 03:44:19;;;;;;;15.68;3.50;;;;;;;;;;4947487;28;20078;-71
2022/09/14 03:46:45;;;;;;;14.00;3.72;;;;;;;;;;4949352;28;20130;-73
2022/09/14 03:49:11;;;;;;;13.02;3.60;;;;;;;;;;4948394;28;20471;-69
2022/09/14 03:51:37;;;;;;;10.60;3.50;;;;;;;;;;4949834;28;20524;-68
2022/09/14 03:54:03;;;;;;;16.65;3.50;;;;;;;;;;4950984;28;20054;-68
2022/09/14 03:56:29;;;;;;;16.15;3.70;;;;;;;;;;4965814;28;20122;-70
2022/09/14 03:58:56;;;;;;;14.65;3.47;;;;;;;;;;4948012;28;20055;-69
2022/09/14 04:01:22;;;;;;;18.95;3.70;;;;;;;;;;4948408;28;20493;-71
2022/09/14 04:03:49;;;;;;;14.32;3.45;;;;;;;;;;4950891;28;20055;-69
2022/09/14 04:06:15;;;;;;;10.02;3.33;;;;;;;;;;4949567;28;20449;-73
2022/09/14 04:08:43;;;;;;;15.85;3.38;;;;;;;;;;4947946;28;20047;-68
2022/09/14 04:11:30;;;;;;;16.80;3.75;;;;;;;;;;4959673;28;20121;-70
2022/09/14 04:14:01;;;;;;;13.48;3.72;;;;;;;;;;4944213;28;20047;-69
2022/09/14 04:16:27;;;;;;;15.10;3.55;;;;;;;;;;4951870;28;20055;-70
2022/09/14 04:18:53;;;;;;;10.15;3.20;;;;;;;;;;4949132;28;20055;-69
2022/09/14 04:21:21;;;;;;;13.77;3.75;;;;;;;;;;4948842;28;20051;-68
2022/09/14 04:23:51;;;;;;;13.32;3.88;;;;;;;;;;4948394;28;20102;-68
2022/09/14 04:26:18;;;;;;;15.23;3.90;;;;;;;;;;4952183;28;20090;-68
2022/09/14 04:28:45;;;;;;;12.45;3.03;;;;;;;;;;4949717;28;20059;-68
2022/09/14 04:31:11;;;;;;;14.40;3.40;;;;;;;;;;4951558;28;20047;-68
2022/09/14 04:33:38;;;;;;;13.10;3.40;;;;;;;;;;4948856;28;20051;-72
2022/09/14 04:36:06;;;;;;;13.18;4.00;;;;;;;;;;4948639;28;20055;-69
2022/09/14 04:38:34;;;;;;;13.40;3.92;;;;;;;;;;4947483;28;20071;-70
2022/09/14 04:41:04;;;;;;;15.30;3.47;;;;;;;;;;4943541;28;20051;-71
2022/09/14 04:43:30;;;;;;;10.18;3.65;;;;;;;;;;4941785;28;20047;-72
2022/09/14 04:46:09;;;;;;;11.07;3.90;;;;;;;;;;4945224;28;20606;-69
2022/09/14 04:48:35;;;;;;;8.90;3.67;;;;;;;;;;4940099;28;20050;-68
2022/09/14 04:51:03;;;;;;;12.00;4.03;;;;;;;;;;4942082;28;20396;-74
2022/09/14 04:53:29;;;;;;;12.75;3.80;;;;;;;;;;4940722;28;20119;-73
2022/09/14 04:56:00;;;;;;;11.25;3.90;;;;;;;;;;4957156;28;20102;-69
2022/09/14 04:58:27;;;;;;;13.18;4.68;;;;;;;;;;4943203;28;20070;-71
2022/09/14 05:01:00;;;;;;;12.88;3.80;;;;;;;;;;4940640;28;20089;-68
2022/09/14 05:03:26;;;;;;;12.13;4.20;;;;;;;;;;4944431;28;20074;-72
2022/09/14 05:05:51;;;;;;;12.60;4.00;;;;;;;;;;4944012;28;20118;-74
2022/09/14 05:08:17;;;;;;;10.23;3.80;;;;;;;;;;4946960;29;20047;-71
2022/09/14 05:10:43;;;;;;;14.02;3.80;;;;;;;;;;4945398;28;20070;-73
2022/09/14 05:13:09;;;;;;;13.68;4.55;;;;;;;;;;4945480;28;20047;-69
2022/09/14 05:15:35;;;;;;;18.05;4.57;;;;;;;;;;4948877;28;20055;-75
2022/09/14 05:18:02;;;;;;;12.80;4.07;;;;;;;;;;4949103;28;20043;-75
2022/09/14 05:20:28;;;;;;;19.38;4.38;;;;;;;;;;4949498;28;20057;-74
2022/09/14 05:22:54;;;;;;;16.20;3.83;;;;;;;;;;4944566;28;20047;-74
2022/09/14 05:25:20;;;;;;;13.20;4.50;;;;;;;;;;4945303;28;20416;-72
2022/09/14 05:27:46;;;;;;;16.52;3.90;;;;;;;;;;4945400;28;20058;-68
2022/09/14 05:30:11;;;;;;;17.92;4.57;;;;;;;;;;4944646;28;20058;-68
2022/09/14 05:32:37;;;;;;;18.33;4.40;;;;;;;;;;4944746;28;20509;-70
2022/09/14 05:35:03;;;;;;;20.00;4.82;;;;;;;;;;4944985;28;20155;-71
2022/09/14 05:37:29;;;;;;;11.65;4.47;;;;;;;;;;4946203;29;20058;-73
2022/09/14 05:39:55;;;;;;;15.13;4.18;;;;;;;;;;4944818;28;20505;-73
2022/09/14 05:42:21;;;;;;;18.10;4.75;;;;;;;;;;4945505;29;20324;-70
2022/09/14 05:44:46;;;;;;;13.20;4.22;;;;;;;;;;4948057;28;20059;-72
2022/09/14 05:47:12;;;;;;;15.40;4.88;;;;;;;;;;4945159;28;20087;-72
2022/09/14 05:49:38;;;;;;;14.27;4.30;;;;;;;;;;4945537;28;20418;-72
2022/09/14 05:52:04;;;;;;;17.13;4.50;;;;;;;;;;4951097;28;20051;-70
2022/09/14 05:54:30;;;;;;;18.48;5.47;;;;;;;;;;4940989;28;20057;-69
2022/09/14 05:56:56;;;;;;;18.80;4.90;;;;;;;;;;4950371;28;20055;-73
2022/09/14 05:59:22;;;;;;;14.55;4.80;;;;;;;;;;4946049;28;20525;-70
2022/09/14 06:01:48;;;;;;;16.85;4.60;;;;;;;;;;4943624;28;20107;-74
2022/09/14 06:04:13;;;;;;;14.57;4.65;;;;;;;;;;4943206;28;20106;-71
2022/09/14 06:06:39;;;;;;;17.58;4.72;;;;;;;;;;4946348;28;20039;-70
2022/09/14 06:09:05;;;;;;;18.13;4.53;;;;;;;;;;4951729;28;20138;-71
2022/09/14 06:11:35;;;;;;;16.73;4.55;;;;;;;;;;4943970;29;20784;-70
2022/09/14 06:14:01;;;;;;;16.65;4.20;;;;;;;;;;4946033;29;20195;-75
2022/09/14 06:16:27;;;;;;;18.95;5.03;;;;;;;;;;4941953;28;20073;-74
2022/09/14 06:18:55;;;;;;;15.43;4.40;;;;;;;;;;4941794;28;20142;-70
2022/09/14 06:21:21;;;;;;;28.67;5.05;;;;;;;;;;4948119;28;20043;-71
2022/09/14 06:23:48;;;;;;;16.73;4.88;;;;;;;;;;4951386;28;20059;-68
2022/09/14 06:26:15;;;;;;;21.13;4.28;;;;;;;;;;4956373;28;20039;-70
2022/09/14 06:28:41;;;;;;;16.73;5.03;;;;;;;;;;4965308;28;20520;-68
2022/09/14 06:31:11;;;;;;;21.17;5.30;;;;;;;;;;4951977;28;20378;-65
2022/09/14 06:33:37;;;;;;;18.80;5.80;;;;;;;;;;4950496;28;20492;-71
2022/09/14 06:36:11;;;;;;;13.63;5.00;;;;;;;;;;4950222;28;20058;-68
2022/09/14 06:38:38;;;;;;;19.17;4.90;;;;;;;;;;4949749;28;20051;-70
2022/09/14 06:41:07;;;;;;;20.98;4.95;;;;;;;;;;4945751;28;20506;-70
2022/09/14 06:43:37;;;;;;;19.42;4.65;;;;;;;;;;4949864;28;20039;-71
2022/09/14 06:46:05;;;;;;;19.33;5.00;;;;;;;;;;4948892;28;20043;-70
2022/09/14 06:48:37;;;;;;;20.95;5.18;;;;;;;;;;4951901;28;20050;-70
2022/09/14 06:51:11;;;;;;;18.75;5.18;;;;;;;;;;4950594;28;20103;-70
2022/09/14 06:53:37;;;;;;;19.48;5.40;;;;;;;;;;4957307;28;20512;-70
2022/09/14 06:56:03;;;;;;;18.05;4.88;;;;;;;;;;4947257;28;20047;-70
2022/09/14 06:58:29;;;;;;;23.55;4.55;;;;;;;;;;4951240;28;20063;-69
2022/09/14 07:01:00;;;;;;;20.42;4.93;;;;;;;;;;4947849;28;20056;-70
2022/09/14 07:03:26;;;;;;;17.92;5.18;;;;;;;;;;4950313;28;20047;-70
2022/09/14 07:05:52;;;;;;;35.38;4.82;;;;;;;;;;4948501;28;20046;-72
2022/09/14 07:08:18;;;;;;;19.23;3.95;;;;;;;;;;4947478;28;20055;-69
2022/09/14 07:10:43;;;;;;;17.23;4.72;;;;;;;;;;4950445;28;20055;-70
2022/09/14 07:13:09;;;;;;;13.45;3.72;;;;;;;;;;4950199;28;20039;-71
2022/09/14 07:15:35;;;;;;;20.17;4.32;;;;;;;;;;4948314;28;20143;-70
2022/09/14 07:18:01;;;;;;;12.77;3.88;;;;;;;;;;4947330;28;20596;-70
2022/09/14 07:20:27;;;;;;;7.57;3.55;;;;;;;;;;4950216;28;20071;-71
2022/09/14 07:22:53;;;;;;;15.02;3.95;;;;;;;;;;4962817;28;20039;-74
2022/09/14 07:25:19;;;;;;;16.05;3.80;;;;;;;;;;4951767;28;20043;-73
2022/09/14 07:27:44;;;;;;;13.07;3.92;;;;;;;;;;4950317;28;20489;-73
2022/09/14 07:30:11;;;;;;;7.55;3.28;;;;;;;;;;4948976;28;20047;-73
2022/09/14 07:32:37;;;;;;;10.77;3.33;;;;;;;;;;4950631;28;20055;-70
2022/09/14 07:35:04;;;;;;;13.40;3.85;;;;;;;;;;4948373;28;20043;-73
2022/09/14 07:37:30;;;;;;;14.05;4.22;;;;;;;;;;4949940;28;20428;-69
2022/09/14 07:39:56;;;;;;;13.93;3.95;;;;;;;;;;4946551;28;20047;-70
2022/09/14 07:42:21;;;;;;;12.68;3.50;;;;;;;;;;4949255;28;20055;-72
2022/09/14 07:44:47;;;;;;;16.75;4.43;;;;;;;;;;4940355;28;20561;-69
2022/09/14 07:47:13;;;;;;;9.23;3.85;;;;;;;;;;4942718;28;20044;-70
2022/09/14 07:49:39;;;;;;;16.25;3.97;;;;;;;;;;4941074;28;20054;-72
2022/09/14 07:52:05;;;;;;;15.55;3.88;;;;;;;;;;4947696;28;20118;-72
2022/09/14 07:54:31;;;;;;;15.63;4.40;;;;;;;;;;4947867;28;20046;-70
2022/09/14 07:56:56;;;;;;;11.65;3.22;;;;;;;;;;4944981;28;20061;-71
2022/09/14 07:59:22;;;;;;;11.40;3.35;;;;;;;;;;4949865;28;20051;-70
2022/09/14 08:01:48;;;;;;;14.93;3.92;;;;;;;;;;4945849;28;20053;-72
2022/09/14 08:04:14;;;;;;;14.43;3.53;;;;;;;;;;4948418;28;20081;-72
2022/09/14 08:06:41;;;;;;;11.15;3.58;;;;;;;;;;4946313;28;20047;-74
2022/09/14 08:09:07;;;;;;;10.00;3.35;;;;;;;;;;4946644;28;20411;-73
2022/09/14 08:11:34;;;;;;;15.05;3.47;;;;;;;;;;4953354;28;20090;-72
2022/09/14 08:14:03;;;;;;;11.23;3.33;;;;;;;;;;4951757;28;20451;-71
2022/09/14 08:16:31;;;;;;;9.98;3.33;;;;;;;;;;4951645;28;20390;-72
2022/09/14 08:18:59;;;;;;;12.85;3.83;;;;;;;;;;4939597;28;20066;-71
2022/09/14 08:21:26;;;;;;;10.63;3.58;;;;;;;;;;4952624;28;20055;-71
2022/09/14 08:23:53;;;;;;;17.73;4.30;;;;;;;;;;4951506;28;20051;-70
2022/09/14 08:26:22;;;;;;;12.05;3.97;;;;;;;;;;4951359;28;20047;-70
2022/09/14 08:28:49;;;;;;;18.08;3.97;;;;;;;;;;4949614;28;20079;-71
2022/09/14 08:31:20;;;;;;;11.10;3.88;;;;;;;;;;4949568;28;20121;-71
2022/09/14 08:33:52;;;;;;;15.38;4.32;;;;;;;;;;4949216;28;20408;-71
2022/09/14 08:36:20;;;;;;;13.82;3.90;;;;;;;;;;4949268;28;20059;-70
2022/09/14 08:38:46;;;;;;;10.13;3.70;;;;;;;;;;4949498;28;20135;-71
2022/09/14 08:41:45;;;;;;;11.23;4.10;;;;;;;;;;4952879;28;20126;-71
2022/09/14 08:44:48;;;;;;;11.23;3.85;;;;;;;;;;4955016;28;20047;-73
2022/09/14 08:47:27;;;;;;;14.23;4.05;;;;;;;;;;4952537;28;20653;-70
2022/09/14 08:50:11;;;;;;;14.80;4.05;;;;;;;;;;4966986;28;20091;-71
2022/09/14 08:52:43;;;;;;;6.45;2.83;;;;;;;;;;4950347;28;20404;-72
2022/09/14 08:55:34;;;;;;;9.23;3.45;;;;;;;;;;4952433;28;20059;-72
2022/09/14 08:58:16;;;;;;;8.63;2.83;;;;;;;;;;4953050;28;20476;-71
2022/09/14 09:00:51;;;;;;;9.77;2.83;;;;;;;;;;4953408;28;20050;-73
2022/09/14 09:03:35;;;;;;;10.82;2.47;;;;;;;;;;4953952;28;20445;-72
2022/09/14 09:06:15;;;;;;;10.25;2.92;;;;;;;;;;4952203;28;20413;-73
2022/09/14 09:09:05;;;;;;;12.10;2.85;;;;;;;;;;4952601;28;20047;-72
2022/09/14 09:11:39;;;;;;;7.30;2.50;;;;;;;;;;4953142;28;20061;-72
2022/09/14 09:14:18;;;;;;;10.75;2.92;;;;;;;;;;4952272;28;20281;-72
2022/09/14 09:16:49;;;;;;;15.07;3.50;;;;;;;;;;4952191;28;20575;-72
2022/09/14 09:19:22;;;;;;;8.25;3.25;;;;;;;;;;4952418;28;20043;-71
2022/09/14 09:21:48;;;;;;;16.03;3.60;;;;;;;;;;4952209;28;20059;-71
2022/09/14 09:24:19;;;;;;;10.20;3.20;;;;;;;;;;4952411;28;20303;-70
2022/09/14 09:26:45;;;;;;;10.10;3.03;;;;;;;;;;4953786;28;20043;-70
2022/09/14 09:29:11;;;;;;;11.23;3.28;;;;;;;;;;4966526;28;20046;-71
2022/09/14 09:31:44;;;;;;;16.23;3.75;;;;;;;;;;4954277;28;20043;-71
2022/09/14 09:34:14;;;;;;;11.18;3.08;;;;;;;;;;4953732;28;20101;-72
2022/09/14 09:36:47;;;;;;;13.30;3.50;;;;;;;;;;4955305;28;20043;-71
2022/09/14 09:39:13;;;;;;;12.70;3.35;;;;;;;;;;4953615;28;20040;-72
2022/09/14 09:42:05;;;;;;;9.65;2.80;;;;;;;;;;4952579;28;20417;-71
2022/09/14 09:45:00;;;;;;;10.85;2.80;;;;;;;;;;4950459;28;20043;-71
2022/09/14 09:47:38;;;;;;;12.48;2.95;;;;;;;;;;4949691;28;20039;-71
2022/09/14 09:50:17;;;;;;;9.70;3.42;;;;;;;;;;4940749;28;20051;-73
2022/09/14 09:52:55;;;;;;;15.52;4.30;;;;;;;;;;4950689;28;20052;-71
2022/09/14 09:55:27;;;;;;;14.00;4.10;;;;;;;;;;4969943;28;20051;-70
2022/09/14 09:57:53;;;;;;;10.65;2.95;;;;;;;;;;4953813;28;20062;-71
2022/09/14 10:00:20;;;;;;;20.27;3.95;;;;;;;;;;4955496;28;20054;-71
2022/09/14 10:02:47;;;;;;;7.70;2.92;;;;;;;;;;4956218;28;20062;-70
2022/09/14 10:05:12;;;;;;;14.45;3.05;;;;;;;;;;4954866;28;20082;-70
2022/09/14 10:07:51;;;;;;;12.52;3.25;;;;;;;;;;4951884;28;20077;-71
2022/09/14 10:10:22;;;;;;;9.98;2.72;;;;;;;;;;4951737;28;20437;-73
2022/09/14 10:12:54;;;;;;;9.32;2.72;;;;;;;;;;4946993;28;20048;-73
2022/09/14 10:15:27;;;;;;;11.30;2.50;;;;;;;;;;4966076;28;20052;-71
2022/09/14 10:18:21;;;;;;;10.40;2.88;;;;;;;;;;4951629;28;20067;-70
2022/09/14 10:20:53;;;;;;;9.65;2.33;;;;;;;;;;4941544;28;20082;-72
2022/09/14 10:23:18;;;;;;;8.65;2.83;;;;;;;;;;4951093;28;20078;-73
2022/09/14 10:26:12;;;;;;;11.32;3.00;;;;;;;;;;4951996;28;20055;-71
2022/09/14 10:28:49;;;;;;;14.02;2.40;;;;;;;;;;4954179;28;20494;-72
2022/09/14 10:31:16;;;;;;;14.55;3.00;;;;;;;;;;4962753;28;20405;-72
2022/09/14 10:33:45;;;;;;;12.77;2.65;;;;;;;;;;4951498;28;20051;-73
2022/09/14 10:36:36;;;;;;;8.50;2.45;;;;;;;;;;4950916;28;20051;-71
2022/09/14 10:39:28;;;;;;;9.77;2.60;;;;;;;;;;4950775;28;20082;-71
2022/09/14 10:42:13;;;;;;;13.38;3.10;;;;;;;;;;4951934;28;20047;-71
2022/09/14 10:44:58;;;;;;;5.80;2.28;;;;;;;;;;4982567;28;20175;-70
2022/09/14 10:47:32;;;;;;;8.25;2.50;;;;;;;;;;4951544;28;20047;-72
2022/09/14 10:50:19;;;;;;;9.20;2.47;;;;;;;;;;4951765;28;20047;-71
2022/09/14 10:53:03;;;;;;;8.18;2.50;;;;;;;;;;4945262;28;20074;-73
2022/09/14 10:55:33;;;;;;;;;;;;;;;;;;4951989;28;20523;-71
2022/09/14 10:58:23;;;;;;;11.45;2.35;;;;;;;;;;4982586;28;19923;-69
2022/09/14 11:01:07;;;;;;;8.50;2.20;;;;;;;;;;4951026;28;20532;-72
2022/09/14 11:03:57;;;;;;;;;;;;;;;;;;4939537;28;20501;-73
2022/09/14 11:06:48;;;;;;;9.20;2.05;;;;;;;;;;4948458;28;19934;-71
2022/09/14 11:09:26;;;;;;;12.05;2.08;;;;;;;;;;4953073;28;20429;-71
2022/09/14 11:12:16;;;;;;;11.55;2.50;;;;;;;;;;4950986;28;20655;-72
2022/09/14 11:14:59;;;;;;;9.07;2.22;;;;;;;;;;4950360;28;20039;-70
2022/09/14 11:17:44;;;;;;;8.70;2.10;;;;;;;;;;4950908;28;20051;-71
2022/09/14 11:20:24;;;;;;;;;;;;;;;;;;4950936;28;20479;-71
2022/09/14 11:23:18;;;;;;;13.40;2.28;;;;;;;;;;4949625;28;19922;-73
2022/09/14 11:25:53;;;;;;;11.77;2.42;;;;;;;;;;4950916;28;20390;-73
2022/09/14 11:28:56;;;;;;;11.82;2.60;;;;;;;;;;4950061;28;20461;-74
2022/09/14 11:31:25;;;;;;;14.40;2.17;;;;;;;;;;4948959;28;20048;-73
2022/09/14 11:34:01;;;;;;;9.45;2.28;;;;;;;;;;4949770;28;20054;-71
2022/09/14 11:36:33;;;;;;;9.68;2.10;;;;;;;;;;4949613;28;20082;-73
2022/09/14 11:39:13;;;;;;;12.10;2.72;;;;;;;;;;4949835;28;20043;-71
2022/09/14 11:41:46;;;;;;;8.20;2.30;;;;;;;;;;4948221;28;20039;-72
2022/09/14 11:44:29;;;;;;;7.50;2.53;;;;;;;;;;4949612;28;20051;-71
2022/09/14 11:47:02;;;;;;;9.40;2.55;;;;;;;;;;4950470;28;20061;-71
2022/09/14 11:49:53;;;;;;;9.73;2.20;;;;;;;;;;4950605;28;20509;-72
2022/09/14 11:52:30;;;;;;;7.78;1.80;;;;;;;;;;4964343;28;20481;-70
2022/09/14 11:54:58;;;;;;;5.88;1.80;;;;;;;;;;4951472;28;20059;-70
2022/09/14 11:57:29;;;;;;;9.18;2.08;;;;;;;;;;4950658;28;20062;-73
2022/09/14 12:00:01;;;;;;;8.07;2.22;;;;;;;;;;4949729;28;20047;-72
2022/09/14 12:02:27;;;;;;;8.23;2.35;;;;;;;;;;4949941;28;20066;-72
2022/09/14 12:05:09;;;;;;;8.15;2.10;;;;;;;;;;4963837;28;20047;-73
2022/09/14 12:07:48;;;;;;;7.78;2.50;;;;;;;;;;4949204;28;20143;-72
2022/09/14 12:10:14;;;;;;;6.40;2.28;;;;;;;;;;4951683;28;20047;-70
2022/09/14 12:12:57;;;;;;;10.75;2.72;;;;;;;;;;4944336;28;20043;-70
2022/09/14 12:15:25;;;;;;;6.72;2.05;;;;;;;;;;4947928;28;20047;-71
2022/09/14 12:18:13;;;;;;;8.25;1.83;;;;;;;;;;4950150;28;20051;-71
2022/09/14 12:20:45;;;;;;;5.85;1.80;;;;;;;;;;4964091;28;20043;-70
2022/09/14 12:23:32;;;;;;;7.00;2.00;;;;;;;;;;4948924;28;20051;-70
2022/09/14 12:26:01;;;;;;;7.40;2.00;;;;;;;;;;4964872;28;20425;-71
2022/09/14 12:28:42;;;;;;;5.28;1.80;;;;;;;;;;4949347;28;20051;-71
2022/09/14 12:31:24;;;;;;;9.95;1.90;;;;;;;;;;4958728;28;20288;-73
2022/09/14 12:34:18;;;;;;;8.82;1.60;;;;;;;;;;4953667;28;20047;-73
2022/09/14 12:36:44;;;;;;;7.22;1.58;;;;;;;;;;4949754;28;20899;-72
2022/09/14 12:39:26;;;;;;;7.20;1.63;;;;;;;;;;4949216;28;20043;-72
2022/09/14 12:41:52;;;;;;;7.20;1.50;;;;;;;;;;4950210;28;20062;-72
2022/09/14 12:44:36;;;;;;;11.32;1.85;;;;;;;;;;4981295;28;20067;-72
2022/09/14 12:47:21;;;;;;;;;;;;;;;;;;4959691;28;20074;-71
2022/09/14 12:49:47;;;;;;;5.65;1.67;;;;;;;;;;4942461;28;20274;-70
2022/09/14 12:52:47;;;;;;;6.60;1.45;;;;;;;;;;4951113;28;20055;-74
2022/09/14 12:55:19;;;;;;;6.47;1.70;;;;;;;;;;4935491;28;21514;-70
2022/09/14 12:58:20;;;;;;;5.72;1.40;;;;;;;;;;4949737;28;20094;-71
2022/09/14 13:00:59;;;;;;;6.88;1.65;;;;;;;;;;4950060;28;21033;-72
2022/09/14 13:03:41;;;;;;;5.07;1.60;;;;;;;;;;4949521;28;20505;-72
2022/09/14 13:06:11;;;;;;;6.15;1.70;;;;;;;;;;4949028;28;20059;-71
2022/09/14 13:08:38;;;;;;;5.30;1.55;;;;;;;;;;4948321;28;20555;-71
2022/09/14 13:11:05;;;;;;;5.95;1.60;;;;;;;;;;4948796;28;20532;-73
2022/09/14 13:13:32;;;;;;;4.78;1.45;;;;;;;;;;4949485;28;20051;-73
2022/09/14 13:16:01;;;;;;;4.45;1.67;;;;;;;;;;4949819;28;20390;-73
2022/09/14 13:18:35;;;;;;;5.28;1.80;;;;;;;;;;4949054;28;20090;-73
2022/09/14 13:21:22;;;;;;;3.97;1.60;;;;;;;;;;4949229;28;20122;-70
2022/09/14 13:23:48;;;;;;;4.57;1.55;;;;;;;;;;4948799;28;20101;-73
2022/09/14 13:26:23;;;;;;;5.82;1.63;;;;;;;;;;4949104;28;20043;-72
2022/09/14 13:28:51;;;;;;;3.33;1.38;;;;;;;;;;4951047;28;20047;-72
2022/09/14 13:31:25;;;;;;;6.40;1.48;;;;;;;;;;4953139;28;20134;-74
2022/09/14 13:33:53;;;;;;;4.47;1.50;;;;;;;;;;4960359;28;20070;-73
2022/09/14 13:36:23;;;;;;;3.75;1.35;;;;;;;;;;4951977;28;20090;-71
2022/09/14 13:38:50;;;;;;;5.57;1.30;;;;;;;;;;4952025;28;20130;-71
2022/09/14 13:41:17;;;;;;;3.25;1.00;;;;;;;;;;4949657;28;20078;-71
2022/09/14 13:43:48;;;;;;;5.28;1.30;;;;;;;;;;4952589;28;20051;-76
2022/09/14 13:46:14;;;;;;;4.18;1.27;;;;;;;;;;4960890;28;20074;-72
2022/09/14 13:48:42;;;;;;;4.35;1.20;;;;;;;;;;4963678;28;20078;-72
2022/09/14 13:51:09;;;;;;;3.55;1.27;;;;;;;;;;4950785;28;20059;-73
2022/09/14 13:53:56;;;;;;;4.05;1.13;;;;;;;;;;4952964;28;20055;-72
2022/09/14 13:56:30;;;;;;;2.78;1.27;;;;;;;;;;4955059;28;20051;-77
2022/09/14 13:59:11;;;;;;;;;;;;;;;;;;4956086;28;20044;-73
2022/09/14 14:01:57;;;;;;;4.88;1.20;;;;;;;;;;4957745;28;20020;-71
2022/09/14 14:04:34;;;;;;;2.88;1.25;;;;;;;;;;4955668;28;20130;-71
2022/09/14 14:07:30;;;;;;;5.80;0.95;;;;;;;;;;4953040;28;20130;-71
2022/09/14 14:09:58;;;;;;;4.03;1.02;;;;;;;;;;4948131;28;20051;-72
2022/09/14 14:12:27;;;;;;;5.32;1.60;;;;;;;;;;4948243;28;20047;-71
2022/09/14 14:14:57;;;;;;;6.97;1.40;;;;;;;;;;4946110;28;20130;-70
2022/09/14 14:17:27;;;;;;;4.22;1.00;;;;;;;;;;4951688;28;20122;-70
2022/09/14 14:19:56;;;;;;;10.32;1.45;;;;;;;;;;4952157;28;20044;-71
2022/09/14 14:22:45;;;;;;;7.25;1.20;;;;;;;;;;4937863;28;20045;-73
2022/09/14 14:25:19;;;;;;;6.10;1.23;;;;;;;;;;4951713;28;20178;-70
2022/09/14 14:27:46;;;;;;;;;;;;;;;;;;4953357;28;20105;-71
2022/09/14 14:30:20;;;;;;;2.50;1.20;;;;;;;;;;4952140;28;20178;-74
2022/09/14 14:32:54;;;;;;;2.85;0.98;;;;;;;;;;4951973;28;20051;-74
2022/09/14 14:35:22;;;;;;;1.63;0.73;;;;;;;;;;4951615;28;20117;-73
2022/09/14 14:37:49;;;;;;;4.57;1.00;;;;;;;;;;4951777;28;20046;-72
2022/09/14 14:40:16;;;;;;;5.18;1.00;;;;;;;;;;4952926;28;20052;-71
2022/09/14 14:42:43;;;;;;;6.13;1.13;;;;;;;;;;4958686;28;20504;-73
2022/09/14 14:45:20;;;;;;;3.83;1.27;;;;;;;;;;4959778;28;20043;-72
2022/09/14 14:47:49;;;;;;;3.83;1.00;;;;;;;;;;4963890;28;20073;-72
2022/09/14 14:50:21;;;;;;;4.57;1.20;;;;;;;;;;4947167;28;20489;-72
2022/09/14 14:52:47;;;;;;;4.57;1.02;;;;;;;;;;4941016;28;20497;-73
2022/09/14 14:55:13;;;;;;;5.28;1.50;;;;;;;;;;4949261;28;20094;-72
2022/09/14 14:57:39;;;;;;;6.90;1.10;;;;;;;;;;4949720;28;20062;-75
2022/09/14 15:00:15;;;;;;;6.20;1.00;;;;;;;;;;4947129;28;20046;-72
2022/09/14 15:02:41;;;;;;;5.30;0.90;;;;;;;;;;4936374;28;20509;-74
2022/09/14 15:05:08;;;;;;;4.63;0.98;;;;;;;;;;4957968;28;20364;-75